createdAt,value
2023-01-31T00:00:14.728Z,70.70
2023-01-31T00:45:58.877Z,71.50
2023-01-31T00:48:50.775Z,71.70
2023-01-31T00:52:01.540Z,71.20
2023-01-31T00:55:22.847Z,71.10
2023-01-31T01:02:35.747Z,70.90
2023-01-31T01:13:15.513Z,70.60
2023-01-31T01:20:07.605Z,70.00
2023-01-31T01:30:53.402Z,69.50
2023-01-31T01:33:56.817Z,69.10
2023-01-31T01:36:29.777Z,69.20
2023-01-31T01:50:55.920Z,69.30
2023-01-31T01:53:31.076Z,70.10
2023-01-31T01:56:37.504Z,70.30
2023-01-31T01:59:56.806Z,70.40
2023-01-31T02:03:00.154Z,70.30
2023-01-31T02:07:58.291Z,70.70
2023-01-31T02:09:35.103Z,70.70
2023-01-31T02:13:03.624Z,70.80
2023-01-31T02:15:41.562Z,70.90
2023-01-31T02:18:10.946Z,71.80
2023-01-31T02:21:27.402Z,71.40
2023-01-31T02:24:58.163Z,71.10
2023-01-31T02:28:01.296Z,71.20
2023-01-31T02:31:26.803Z,71.30
2023-01-31T02:34:03.829Z,71.30
2023-01-31T02:37:04.817Z,71.50
2023-01-31T02:39:51.268Z,71.30
2023-01-31T02:43:13.931Z,71.50
2023-01-31T02:46:00.983Z,71.30
2023-01-31T02:52:18.304Z,71.40
2023-01-31T02:58:43.609Z,70.80
2023-01-31T03:09:43.007Z,70.70
2023-01-31T03:16:45.677Z,70.20
2023-01-31T03:19:34.818Z,70.30
2023-01-31T03:43:52.943Z,69.90
2023-01-31T03:59:44.121Z,70.60
2023-01-31T04:21:35.293Z,71.40
2023-01-31T04:25:17.318Z,71.50
2023-01-31T04:36:03.868Z,71.90
2023-01-31T04:44:05.205Z,72.10
2023-01-31T04:51:41.884Z,72.50
2023-01-31T05:11:13.152Z,73.10
2023-01-31T05:18:08.925Z,72.70
2023-01-31T05:20:40.989Z,73.00
2023-01-31T05:23:13.827Z,72.50
2023-01-31T05:25:42.482Z,72.70
2023-01-31T05:28:11.826Z,72.50
2023-01-31T05:30:40.646Z,72.50
2023-01-31T05:33:09.306Z,72.40
2023-01-31T05:35:38.876Z,72.40
2023-01-31T05:38:09.812Z,72.40
2023-01-31T05:40:40.056Z,72.30
2023-01-31T05:43:08.658Z,72.40
2023-01-31T05:45:40.248Z,71.90
2023-01-31T05:48:09.778Z,71.90
2023-01-31T05:53:48.750Z,71.50
2023-01-31T05:56:34.962Z,71.70
2023-01-31T05:59:03.531Z,71.80
2023-01-31T06:01:32.222Z,71.90
2023-01-31T06:04:04.305Z,71.90
2023-01-31T06:06:33.400Z,72.00
2023-01-31T06:09:03.388Z,72.10
2023-01-31T06:11:33.361Z,72.60
2023-01-31T06:14:18.485Z,72.60
2023-01-31T06:17:02.145Z,72.40
2023-01-31T06:19:36.950Z,72.70
2023-01-31T06:22:06.073Z,72.60
2023-01-31T06:24:34.552Z,72.60
2023-01-31T06:27:06.400Z,72.70
2023-01-31T06:29:34.896Z,72.80
2023-01-31T06:32:03.345Z,72.70
2023-01-31T06:34:37.872Z,72.90
2023-01-31T06:37:09.240Z,72.80
2023-01-31T06:39:42.734Z,72.90
2023-01-31T06:42:15.203Z,72.90
2023-01-31T06:44:50.647Z,72.80
2023-01-31T06:47:41.949Z,72.80
2023-01-31T06:50:34.719Z,72.70
2023-01-31T06:53:09.413Z,72.80
2023-01-31T06:55:38.865Z,72.90
2023-01-31T07:26:09.633Z,73.20
2023-01-31T07:28:43.198Z,73.60
2023-01-31T07:31:14.185Z,73.50
2023-01-31T07:33:44.021Z,73.40
2023-01-31T07:36:44.203Z,73.40
2023-01-31T07:39:19.553Z,73.40
2023-01-31T07:41:51.206Z,73.20
2023-01-31T07:44:19.839Z,73.10
2023-01-31T07:46:51.241Z,73.10
2023-01-31T07:49:21.026Z,73.30
2023-01-31T07:51:51.558Z,73.10
2023-01-31T07:54:19.941Z,73.20
2023-01-31T07:56:50.367Z,73.20
2023-01-31T07:59:18.850Z,73.40
2023-01-31T08:02:04.405Z,73.20
2023-01-31T08:04:36.207Z,73.10
2023-01-31T08:07:06.876Z,73.00
2023-01-31T08:09:35.438Z,73.00
2023-01-31T08:12:42.127Z,73.20
2023-01-31T08:15:46.708Z,73.10
2023-01-31T08:18:34.044Z,73.10
2023-01-31T08:22:02.287Z,73.70
2023-01-31T08:24:46.876Z,73.60
2023-01-31T08:27:50.805Z,73.50
2023-01-31T08:39:12.031Z,72.70
2023-01-31T08:46:14.305Z,72.30
2023-01-31T09:28:11.244Z,69.80
2023-01-31T09:31:04.177Z,69.70
2023-01-31T09:33:35.291Z,69.40
2023-01-31T09:36:13.470Z,69.30
2023-01-31T10:21:05.138Z,67.30
2023-01-31T10:24:53.686Z,67.00
2023-01-31T10:27:56.079Z,66.70
2023-01-31T10:45:46.648Z,66.00
2023-01-31T10:52:28.869Z,65.50
2023-01-31T10:55:27.777Z,65.40
2023-01-31T10:58:43.365Z,65.10
2023-01-31T11:05:08.547Z,64.80
2023-01-31T11:08:20.849Z,64.30
2023-01-31T11:12:03.784Z,64.00
2023-01-31T11:14:32.230Z,64.10
2023-01-31T11:17:04.180Z,64.40
2023-01-31T11:30:48.327Z,63.80
2023-01-31T11:33:53.531Z,63.80
2023-01-31T11:43:33.173Z,63.20
2023-01-31T11:47:43.993Z,63.60
2023-01-31T11:52:41.791Z,63.50
2023-01-31T12:04:46.355Z,63.10
2023-01-31T13:29:45.233Z,63.20
2023-01-31T13:38:08.090Z,64.00
2023-01-31T14:31:47.232Z,67.10
2023-01-31T14:43:40.825Z,67.30
